Time;durP1;ratioP1;P1;durP2;ratioP2;P2;SDS_P1;SDS_P2;PMS_P1;PMS_P2;Temp;Humidity;BMP_temperature;BMP_pressure;BME280_temperature;BME280_humidity;BME280_pressure;Samples;Min_cycle;Max_cycle;Signal;HPM_P1;HPM_P2
2022/02/19 00:01:11;;;;;;;7.83;1.90;;;7.60;56.20;;;;;;5074193;28;20201;-92
2022/02/19 00:03:36;;;;;;;8.17;1.40;;;7.50;56.10;;;;;;5042310;28;20205;-92
2022/02/19 00:06:02;;;;;;;6.73;2.07;;;7.60;56.30;;;;;;5045820;28;20636;-93
2022/02/19 00:08:28;;;;;;;6.20;2.10;;;7.60;55.80;;;;;;5028067;28;20189;-92
2022/02/19 00:10:54;;;;;;;12.67;2.20;;;7.50;55.50;;;;;;5044821;28;20427;-92
2022/02/19 00:13:20;;;;;;;8.07;2.20;;;7.60;55.50;;;;;;5049845;28;20415;-91
2022/02/19 00:15:47;;;;;;;5.47;1.67;;;7.70;55.80;;;;;;5057820;28;20169;-92
2022/02/19 00:18:12;;;;;;;4.78;1.50;;;7.70;55.70;;;;;;5038503;28;20459;-92
2022/02/19 00:20:38;;;;;;;11.13;2.83;;;7.90;55.50;;;;;;5036962;28;20254;-92
2022/02/19 00:23:05;;;;;;;6.28;1.30;;;7.80;55.10;;;;;;5037840;28;20197;-92
2022/02/19 00:25:30;;;;;;;2.80;1.75;;;7.70;54.80;;;;;;5041725;28;20636;-91
2022/02/19 00:27:56;;;;;;;10.27;2.17;;;7.70;55.10;;;;;;5036290;28;20276;-91
2022/02/19 00:30:22;;;;;;;13.17;2.03;;;7.60;54.80;;;;;;5019913;28;20296;-92
2022/02/19 00:32:48;;;;;;;14.67;2.87;;;7.80;55.30;;;;;;5036671;28;20223;-92
2022/02/19 00:35:27;;;;;;;21.45;2.80;;;7.80;55.00;;;;;;5041217;28;20169;-92
2022/02/19 00:37:53;;;;;;;12.75;2.50;;;7.70;54.90;;;;;;5029014;28;20201;-91
2022/02/19 00:40:19;;;;;;;10.80;2.20;;;7.70;55.00;;;;;;5019112;28;20177;-92
2022/02/19 00:42:45;;;;;;;6.17;1.90;;;7.70;55.00;;;;;;5053692;28;20419;-92
2022/02/19 00:45:10;;;;;;;8.07;2.10;;;7.60;55.00;;;;;;5019023;28;20182;-91
2022/02/19 00:47:36;;;;;;;5.10;1.30;;;7.70;55.00;;;;;;5053689;28;20441;-91
2022/02/19 00:50:02;;;;;;;10.87;2.30;;;7.70;55.00;;;;;;5035754;28;20927;-91
2022/02/19 00:52:28;;;;;;;5.53;1.95;;;7.70;55.10;;;;;;5036272;28;20629;-92
2022/02/19 00:54:54;;;;;;;5.00;1.40;;;7.70;54.70;;;;;;5037854;28;20319;-91
2022/02/19 00:57:19;;;;;;;7.77;1.90;;;7.70;54.80;;;;;;5058663;28;20207;-91
2022/02/19 00:59:45;;;;;;;14.00;1.93;;;7.70;55.10;;;;;;5039262;28;20220;-91
2022/02/19 01:02:11;;;;;;;14.53;2.37;;;7.70;55.20;;;;;;5038747;28;20345;-91
2022/02/19 01:04:36;;;;;;;9.30;2.37;;;7.70;55.30;;;;;;5040086;28;20208;-91
2022/02/19 01:07:02;;;;;;;8.40;1.97;;;7.70;55.40;;;;;;5041779;28;20215;-92
2022/02/19 01:09:28;;;;;;;11.85;1.67;;;7.70;55.00;;;;;;5039160;28;20500;-92
2022/02/19 01:11:55;;;;;;;10.30;1.90;;;7.60;55.10;;;;;;5046804;28;20181;-92
2022/02/19 01:14:20;;;;;;;8.32;1.95;;;7.60;55.10;;;;;;5060534;28;20181;-92
2022/02/19 01:16:46;;;;;;;5.37;1.57;;;7.60;55.40;;;;;;5060274;28;20205;-91
2022/02/19 01:19:12;;;;;;;4.43;1.60;;;7.60;55.20;;;;;;5042804;28;20185;-92
2022/02/19 01:21:38;;;;;;;8.53;2.33;;;7.60;55.20;;;;;;5053239;28;20181;-92
2022/02/19 01:24:04;;;;;;;7.77;1.50;;;7.60;55.20;;;;;;5056691;28;20227;-92
2022/02/19 01:26:31;;;;;;;9.52;1.52;;;7.60;55.70;;;;;;5041683;28;20739;-91
2022/02/19 01:28:57;;;;;;;7.72;2.30;;;7.70;55.60;;;;;;5043500;28;20510;-93
2022/02/19 01:31:27;;;;;;;11.80;3.13;;;7.60;55.30;;;;;;5042412;28;20185;-93
2022/02/19 01:33:53;;;;;;;12.85;2.25;;;7.60;55.10;;;;;;5043233;28;20419;-92
2022/02/19 01:36:21;;;;;;;6.90;1.80;;;7.70;55.50;;;;;;5043046;28;20181;-93
2022/02/19 01:38:47;;;;;;;12.18;2.00;;;7.60;55.10;;;;;;5060391;28;20443;-93
2022/02/19 01:41:13;;;;;;;5.67;1.30;;;7.70;55.40;;;;;;5042379;28;20177;-93
2022/02/19 01:43:39;;;;;;;7.80;1.97;;;7.60;55.20;;;;;;5061046;28;20464;-92
2022/02/19 01:46:04;;;;;;;5.80;2.03;;;7.60;55.10;;;;;;5041872;28;20169;-93
2022/02/19 01:48:30;;;;;;;16.83;1.90;;;7.60;55.40;;;;;;5042864;28;20716;-94
2022/02/19 01:50:56;;;;;;;5.63;2.20;;;7.60;54.90;;;;;;5038063;28;20196;-93
2022/02/19 01:53:22;;;;;;;6.00;1.97;;;7.50;55.20;;;;;;5038280;28;20947;-92
2022/02/19 01:55:48;;;;;;;8.85;1.63;;;7.50;55.30;;;;;;5021755;28;20185;-92
2022/02/19 01:58:14;;;;;;;3.10;1.60;;;7.50;55.60;;;;;;5038422;28;20207;-92
2022/02/19 02:00:40;;;;;;;11.15;1.88;;;7.40;55.70;;;;;;5043183;28;20407;-93
2022/02/19 02:03:06;;;;;;;11.32;2.00;;;7.40;56.20;;;;;;5060060;28;20197;-93
2022/02/19 02:05:34;;;;;;;4.60;1.53;;;7.30;56.00;;;;;;5040111;28;20180;-92
2022/02/19 02:08:05;;;;;;;9.80;1.95;;;7.30;56.50;;;;;;5040677;28;20228;-93
2022/02/19 02:10:32;;;;;;;9.07;1.63;;;7.50;56.80;;;;;;5064673;28;20170;-92
2022/02/19 02:12:58;;;;;;;8.07;1.52;;;7.30;56.70;;;;;;5059659;28;20181;-92
2022/02/19 02:15:26;;;;;;;14.33;5.30;;;7.30;56.50;;;;;;5055110;28;20170;-93
2022/02/19 02:17:52;;;;;;;6.25;1.58;;;7.30;56.50;;;;;;5060300;28;20558;-94
2022/02/19 02:20:19;;;;;;;5.10;1.70;;;7.30;56.60;;;;;;5060824;28;20189;-93
2022/02/19 02:22:45;;;;;;;5.97;1.70;;;7.30;56.70;;;;;;5042891;28;20200;-92
2022/02/19 02:25:12;;;;;;;3.95;2.00;;;7.40;57.00;;;;;;5037932;28;20284;-92
2022/02/19 02:27:38;;;;;;;5.07;1.63;;;7.30;57.10;;;;;;5037149;28;20193;-92
2022/02/19 02:30:05;;;;;;;5.57;1.50;;;7.20;57.00;;;;;;5036322;28;20189;-93
2022/02/19 02:32:31;;;;;;;3.70;2.08;;;7.10;57.10;;;;;;5036287;28;20185;-92
2022/02/19 02:34:57;;;;;;;4.63;2.20;;;7.00;57.10;;;;;;5054192;28;20189;-92
2022/02/19 02:37:25;;;;;;;7.90;1.58;;;7.00;57.50;;;;;;5036228;28;20559;-92
2022/02/19 02:39:51;;;;;;;8.00;1.58;;;7.00;57.90;;;;;;5020131;28;20239;-92
2022/02/19 02:42:21;;;;;;;8.70;1.65;;;7.00;57.80;;;;;;5036981;28;20537;-92
2022/02/19 02:44:47;;;;;;;8.60;1.75;;;7.10;58.10;;;;;;5054172;28;20358;-92
2022/02/19 02:47:13;;;;;;;9.38;1.45;;;7.10;57.70;;;;;;5036236;28;20205;-91
2022/02/19 02:49:39;;;;;;;14.52;1.95;;;7.00;57.90;;;;;;5036131;28;20173;-92
2022/02/19 02:52:07;;;;;;;3.00;1.30;;;7.00;57.70;;;;;;5020353;28;20291;-92
2022/02/19 02:54:33;;;;;;;6.38;1.85;;;7.00;57.80;;;;;;5036362;28;20439;-93
2022/02/19 02:56:59;;;;;;;9.60;1.90;;;7.10;57.80;;;;;;5037645;28;20201;-93
2022/02/19 02:59:25;;;;;;;7.28;1.83;;;7.00;57.70;;;;;;5039044;28;20431;-93
2022/02/19 03:01:51;;;;;;;10.53;2.00;;;6.90;57.70;;;;;;5049069;28;20185;-93
2022/02/19 03:04:17;;;;;;;8.93;1.63;;;7.00;57.80;;;;;;5041358;28;21006;-93
2022/02/19 03:06:43;;;;;;;7.60;1.63;;;6.90;57.60;;;;;;5040228;28;20192;-93
2022/02/19 03:09:08;;;;;;;5.23;1.40;;;7.00;57.80;;;;;;5039309;28;20177;-92
2022/02/19 03:11:35;;;;;;;8.20;1.53;;;7.00;57.70;;;;;;5039670;28;20177;-93
2022/02/19 03:14:02;;;;;;;8.48;1.65;;;7.00;57.70;;;;;;5043677;28;20177;-92
2022/02/19 03:16:28;;;;;;;4.50;1.58;;;6.90;57.70;;;;;;5055435;28;20241;-93
2022/02/19 03:18:54;;;;;;;13.70;1.92;;;7.00;58.10;;;;;;5037836;28;20189;-92
2022/02/19 03:21:20;;;;;;;22.50;2.63;;;6.90;58.20;;;;;;5035666;28;20209;-91
2022/02/19 03:23:46;;;;;;;4.47;2.10;;;6.80;58.40;;;;;;5035163;28;20562;-92
2022/02/19 03:26:11;;;;;;;8.00;1.70;;;6.90;58.60;;;;;;5035520;28;20499;-93
2022/02/19 03:28:37;;;;;;;8.67;2.40;;;6.80;58.60;;;;;;5036128;28;20231;-93
2022/02/19 03:31:03;;;;;;;8.77;1.30;;;7.00;59.20;;;;;;5036932;28;20431;-93
2022/02/19 03:33:29;;;;;;;5.03;1.73;;;6.80;58.90;;;;;;5036000;28;20188;-92
2022/02/19 03:36:17;;;;;;;5.73;1.83;;;6.80;59.20;;;;;;5040218;28;20184;-92
2022/02/19 03:38:43;;;;;;;13.85;2.05;;;6.80;59.50;;;;;;5036019;28;20258;-91
2022/02/19 03:41:09;;;;;;;3.40;1.67;;;6.80;59.70;;;;;;5052360;28;20593;-92
2022/02/19 03:43:35;;;;;;;10.00;1.60;;;6.80;60.00;;;;;;5041974;28;20547;-91
2022/02/19 03:46:01;;;;;;;7.78;1.30;;;6.80;60.00;;;;;;5036115;28;20191;-91
2022/02/19 03:48:27;;;;;;;9.13;3.57;;;6.90;60.10;;;;;;5055209;28;20602;-92
2022/02/19 03:50:53;;;;;;;4.53;1.53;;;6.80;60.20;;;;;;5035512;28;20900;-92
2022/02/19 03:53:18;;;;;;;6.33;1.77;;;6.90;60.30;;;;;;5053364;28;20183;-92
2022/02/19 03:55:44;;;;;;;3.97;1.40;;;6.80;59.90;;;;;;5035428;28;20277;-92
2022/02/19 03:58:10;;;;;;;13.30;1.70;;;6.70;60.40;;;;;;5034905;28;20696;-92
2022/02/19 04:00:36;;;;;;;3.43;1.43;;;6.80;60.50;;;;;;5034933;28;20439;-92
2022/02/19 04:03:01;;;;;;;10.83;1.60;;;6.60;60.40;;;;;;5036971;28;20652;-92
2022/02/19 04:05:27;;;;;;;5.00;1.90;;;6.50;60.90;;;;;;5048690;28;20443;-93
2022/02/19 04:07:53;;;;;;;5.07;1.40;;;6.50;61.10;;;;;;5045680;28;20257;-91
2022/02/19 04:10:29;;;;;;;5.73;1.50;;;6.40;61.40;;;;;;5053817;28;20211;-92
2022/02/19 04:12:54;;;;;;;8.80;1.75;;;6.40;61.80;;;;;;5036648;28;20496;-92
2022/02/19 04:15:20;;;;;;;8.27;1.67;;;6.40;61.90;;;;;;5036539;28;20622;-92
2022/02/19 04:17:46;;;;;;;6.00;1.60;;;6.50;62.00;;;;;;5035698;28;20287;-92
2022/02/19 04:20:11;;;;;;;5.27;2.07;;;6.50;62.50;;;;;;5053317;28;20415;-93
2022/02/19 04:22:41;;;;;;;4.43;1.63;;;6.40;62.50;;;;;;5049422;28;20181;-92
2022/02/19 04:25:08;;;;;;;11.07;2.05;;;6.50;62.60;;;;;;5057046;28;20192;-93
2022/02/19 04:27:34;;;;;;;4.65;1.90;;;6.50;62.40;;;;;;5041819;28;20201;-93
2022/02/19 04:30:00;;;;;;;10.83;2.03;;;6.40;62.30;;;;;;5044553;28;20700;-94
2022/02/19 04:32:25;;;;;;;5.13;1.60;;;6.40;62.40;;;;;;5043248;28;20725;-92
2022/02/19 04:34:51;;;;;;;6.63;1.60;;;6.30;62.20;;;;;;5043533;28;20265;-92
2022/02/19 04:37:17;;;;;;;8.00;1.73;;;6.30;63.20;;;;;;5061426;28;20343;-92
2022/02/19 04:39:43;;;;;;;5.70;1.40;;;6.30;62.70;;;;;;5043945;28;20232;-92
2022/02/19 04:42:08;;;;;;;12.80;3.43;;;6.20;63.40;;;;;;5043615;28;20514;-91
2022/02/19 04:44:36;;;;;;;7.83;1.63;;;6.10;63.20;;;;;;5043406;28;20467;-93
2022/02/19 04:47:02;;;;;;;19.73;2.78;;;6.20;63.30;;;;;;5041864;28;20215;-92
2022/02/19 04:49:28;;;;;;;8.18;2.17;;;6.20;63.30;;;;;;5039068;28;20573;-92
2022/02/19 04:51:53;;;;;;;4.40;2.20;;;6.10;62.90;;;;;;5038789;28;20177;-92
2022/02/19 04:54:19;;;;;;;13.33;2.57;;;6.10;63.00;;;;;;5048883;28;20185;-93
2022/02/19 04:56:45;;;;;;;4.00;1.33;;;6.10;63.10;;;;;;5052400;28;20423;-92
2022/02/19 04:59:11;;;;;;;6.50;2.40;;;6.00;62.80;;;;;;5040246;28;20419;-92
2022/02/19 05:01:37;;;;;;;9.13;1.67;;;6.00;63.00;;;;;;5037897;28;20189;-92
2022/02/19 05:04:02;;;;;;;11.13;2.00;;;6.10;63.30;;;;;;5038305;28;20201;-92
2022/02/19 05:06:28;;;;;;;2.43;1.23;;;6.00;63.00;;;;;;5040297;28;20173;-93
2022/02/19 05:08:54;;;;;;;6.10;1.77;;;6.10;63.20;;;;;;5059035;28;20408;-92
2022/02/19 05:11:19;;;;;;;12.77;2.27;;;6.20;63.30;;;;;;5044912;28;20173;-92
2022/02/19 05:13:46;;;;;;;13.83;1.57;;;6.10;63.00;;;;;;5039003;28;20269;-92
2022/02/19 05:16:11;;;;;;;14.88;2.83;;;6.10;63.00;;;;;;5037945;28;20185;-92
2022/02/19 05:18:37;;;;;;;4.80;1.50;;;6.10;63.00;;;;;;5038756;28;20224;-92
2022/02/19 05:21:03;;;;;;;4.60;1.77;;;6.00;62.80;;;;;;5038081;28;20624;-91
2022/02/19 05:23:29;;;;;;;4.57;1.70;;;6.10;62.60;;;;;;5039110;28;20540;-91
2022/02/19 05:25:54;;;;;;;7.90;1.73;;;6.00;63.10;;;;;;5039546;28;20188;-92
2022/02/19 05:28:20;;;;;;;6.90;2.20;;;6.00;62.80;;;;;;5056225;28;20217;-91
2022/02/19 05:30:46;;;;;;;5.83;2.27;;;6.00;62.80;;;;;;5038075;28;20226;-92
2022/02/19 05:33:12;;;;;;;8.50;1.83;;;6.00;62.70;;;;;;5038004;28;20184;-92
2022/02/19 05:35:37;;;;;;;3.87;1.60;;;6.00;62.80;;;;;;5037949;28;20268;-92
2022/02/19 05:38:03;;;;;;;13.50;3.53;;;6.10;62.90;;;;;;5038240;28;20428;-92
2022/02/19 05:40:29;;;;;;;9.90;1.77;;;6.00;62.80;;;;;;5037274;28;20169;-92
2022/02/19 05:42:54;;;;;;;7.17;2.87;;;5.90;63.10;;;;;;5055553;28;20173;-93
2022/02/19 05:45:20;;;;;;;8.53;2.50;;;5.90;63.20;;;;;;5037987;28;20444;-92
2022/02/19 05:47:46;;;;;;;5.97;2.27;;;5.90;63.30;;;;;;5055150;28;20213;-91
2022/02/19 05:50:12;;;;;;;3.43;1.50;;;6.00;63.40;;;;;;5038115;28;20173;-92
2022/02/19 05:52:38;;;;;;;8.63;1.60;;;5.90;63.40;;;;;;5037991;28;20415;-92
2022/02/19 05:55:04;;;;;;;5.90;2.47;;;5.90;63.50;;;;;;5037821;28;20419;-92
2022/02/19 05:57:30;;;;;;;11.25;1.52;;;5.80;63.50;;;;;;5037827;28;20957;-93
2022/02/19 05:59:55;;;;;;;18.47;2.27;;;5.80;63.60;;;;;;5021706;28;20189;-92
2022/02/19 06:02:21;;;;;;;11.20;2.20;;;5.80;63.40;;;;;;5038479;28;20243;-93
2022/02/19 06:04:47;;;;;;;9.27;2.47;;;5.90;63.60;;;;;;5041961;28;20205;-93
2022/02/19 06:07:13;;;;;;;11.17;2.80;;;5.70;63.50;;;;;;5023218;28;20196;-92
2022/02/19 06:09:38;;;;;;;12.67;2.17;;;5.70;63.80;;;;;;5056112;28;20625;-94
2022/02/19 06:12:04;;;;;;;3.93;1.90;;;5.80;63.90;;;;;;5045447;28;20416;-92
2022/02/19 06:14:30;;;;;;;5.50;2.13;;;5.80;64.00;;;;;;5055408;28;20562;-92
2022/02/19 06:17:32;;;;;;;12.30;1.73;;;5.80;63.90;;;;;;5039291;28;20201;-91
2022/02/19 06:19:58;;;;;;;6.35;1.80;;;5.70;63.90;;;;;;5039944;28;20196;-91
2022/02/19 06:22:24;;;;;;;11.40;1.97;;;5.70;64.00;;;;;;5047926;28;20215;-92
2022/02/19 06:24:57;;;;;;;10.43;1.80;;;5.70;64.20;;;;;;5040277;28;20214;-93
2022/02/19 06:27:23;;;;;;;8.48;2.63;;;5.60;64.40;;;;;;5024650;28;20468;-92
2022/02/19 06:29:49;;;;;;;23.73;2.47;;;5.70;64.70;;;;;;5054181;28;20174;-93
2022/02/19 06:32:15;;;;;;;5.77;1.73;;;5.80;64.80;;;;;;5039483;28;20216;-93
2022/02/19 06:34:41;;;;;;;17.93;2.07;;;5.70;64.70;;;;;;5038879;28;20268;-92
2022/02/19 06:37:06;;;;;;;7.25;2.05;;;5.60;64.70;;;;;;5020227;28;20221;-92
2022/02/19 06:39:32;;;;;;;4.97;2.40;;;5.70;65.10;;;;;;5019904;28;20236;-93
2022/02/19 06:41:58;;;;;;;8.50;2.30;;;5.60;65.00;;;;;;5043183;28;20244;-91
2022/02/19 06:44:24;;;;;;;9.45;1.80;;;5.70;65.40;;;;;;5039881;28;20201;-92
2022/02/19 06:46:49;;;;;;;7.43;2.63;;;5.60;65.30;;;;;;5031843;28;20201;-91
2022/02/19 06:49:15;;;;;;;8.40;2.03;;;5.70;65.50;;;;;;5032743;28;20185;-92
2022/02/19 06:51:43;;;;;;;12.90;2.07;;;5.60;65.30;;;;;;5056602;28;20186;-92
2022/02/19 06:54:09;;;;;;;12.70;2.78;;;5.50;65.50;;;;;;5043558;28;20311;-92
2022/02/19 06:56:35;;;;;;;12.20;2.47;;;5.50;65.70;;;;;;5064801;28;20242;-92
2022/02/19 06:59:00;;;;;;;14.60;2.43;;;5.50;65.90;;;;;;5048472;28;20438;-92
2022/02/19 07:01:27;;;;;;;11.63;1.97;;;5.60;65.90;;;;;;5055936;28;20438;-93
2022/02/19 07:03:59;;;;;;;6.82;2.05;;;5.70;65.90;;;;;;5049124;28;20550;-91
2022/02/19 07:06:25;;;;;;;10.25;2.15;;;5.70;65.80;;;;;;5056418;28;20177;-92
2022/02/19 07:08:51;;;;;;;11.75;3.03;;;5.70;65.80;;;;;;5037175;28;20193;-92
2022/02/19 07:11:17;;;;;;;12.73;2.70;;;5.70;66.00;;;;;;5033899;28;20583;-92
2022/02/19 07:13:43;;;;;;;4.83;1.83;;;5.70;65.90;;;;;;5035823;28;20421;-92
2022/02/19 07:16:09;;;;;;;10.20;3.23;;;5.80;65.90;;;;;;5034583;28;20193;-91
2022/02/19 07:18:35;;;;;;;12.70;1.83;;;5.80;66.00;;;;;;5033562;28;20449;-91
2022/02/19 07:21:01;;;;;;;6.68;1.23;;;5.80;65.80;;;;;;5037983;28;20417;-92
2022/02/19 07:23:27;;;;;;;15.90;2.38;;;5.80;66.40;;;;;;5019290;28;20198;-92
2022/02/19 07:25:53;;;;;;;8.67;2.00;;;5.80;66.00;;;;;;5005315;28;20181;-91
2022/02/19 07:28:19;;;;;;;6.00;2.40;;;5.80;65.90;;;;;;5018572;28;20968;-92
2022/02/19 07:30:49;;;;;;;10.27;2.97;;;6.10;66.10;;;;;;5017651;28;20193;-91
2022/02/19 07:33:15;;;;;;;6.65;2.42;;;6.10;65.70;;;;;;5017089;28;20166;-91
2022/02/19 07:35:41;;;;;;;16.93;2.00;;;6.00;65.30;;;;;;5016273;28;20178;-91
2022/02/19 07:38:06;;;;;;;21.27;3.20;;;6.00;65.30;;;;;;5016523;28;20429;-92
2022/02/19 07:40:32;;;;;;;21.10;2.00;;;6.20;65.50;;;;;;5016560;28;20508;-91
2022/02/19 07:42:58;;;;;;;7.30;2.17;;;6.20;65.20;;;;;;5015085;28;20436;-90
2022/02/19 07:45:24;;;;;;;10.03;2.20;;;6.30;65.10;;;;;;5015272;28;20462;-91
2022/02/19 07:47:50;;;;;;;7.03;2.40;;;6.20;64.60;;;;;;5016561;28;20198;-91
2022/02/19 07:58:50;;;;;;;10.43;2.20;;;6.30;65.00;;;;;;5053789;28;20204;-92
2022/02/19 08:01:16;;;;;;;4.60;1.50;;;6.30;65.20;;;;;;5036557;28;20181;-92
2022/02/19 08:03:41;;;;;;;13.75;3.15;;;6.40;65.00;;;;;;5035585;28;20258;-92
2022/02/19 08:06:07;;;;;;;12.43;3.07;;;6.50;64.90;;;;;;5036146;28;20181;-92
2022/02/19 08:08:35;;;;;;;23.98;2.25;;;6.60;64.70;;;;;;5053577;28;20439;-91
2022/02/19 08:11:01;;;;;;;7.97;2.17;;;6.50;64.60;;;;;;5055589;28;20177;-91
2022/02/19 08:13:27;;;;;;;21.07;3.13;;;6.50;64.70;;;;;;5072496;28;20188;-91
2022/02/19 08:15:52;;;;;;;12.77;1.60;;;6.60;64.70;;;;;;5036714;28;20493;-90
2022/02/19 08:18:19;;;;;;;13.87;2.50;;;6.50;64.90;;;;;;5035535;28;20193;-91
2022/02/19 08:20:48;;;;;;;12.13;2.85;;;6.50;65.10;;;;;;5049850;28;20159;-91
2022/02/19 08:23:15;;;;;;;32.72;3.45;;;6.50;65.00;;;;;;5033636;28;20174;-90
2022/02/19 08:25:41;;;;;;;10.05;2.85;;;6.60;64.70;;;;;;5038032;28;20178;-91
2022/02/19 08:28:07;;;;;;;11.00;2.10;;;6.60;64.80;;;;;;5073247;28;20220;-90
2022/02/19 08:30:41;;;;;;;9.13;1.98;;;6.70;64.60;;;;;;5037882;28;20292;-90
2022/02/19 08:33:09;;;;;;;9.48;2.40;;;6.60;64.30;;;;;;5019090;28;20181;-90
2022/02/19 08:35:36;;;;;;;8.25;1.80;;;6.60;64.30;;;;;;5018799;28;20189;-90
2022/02/19 08:38:02;;;;;;;10.70;2.30;;;6.70;64.60;;;;;;5053590;28;20280;-90
2022/02/19 08:40:28;;;;;;;4.30;1.63;;;6.70;64.70;;;;;;5063122;28;20196;-91
2022/02/19 08:42:54;;;;;;;8.83;2.00;;;6.90;64.70;;;;;;5041792;28;20185;-90
2022/02/19 08:45:20;;;;;;;6.10;2.20;;;6.90;64.00;;;;;;5020248;28;20471;-92
2022/02/19 08:47:48;;;;;;;25.30;3.17;;;6.90;64.60;;;;;;5035972;28;20523;-92
2022/02/19 08:50:15;;;;;;;18.40;2.38;;;7.00;64.10;;;;;;5021654;28;20182;-93
2022/02/19 08:52:42;;;;;;;16.80;6.13;;;7.10;63.90;;;;;;5049380;28;20169;-94
2022/02/19 08:55:16;;;;;;;14.18;2.53;;;7.10;63.90;;;;;;5057954;28;20173;-94
2022/02/19 08:57:42;;;;;;;17.38;2.92;;;7.20;63.40;;;;;;5050868;28;20193;-93
2022/02/19 09:00:10;;;;;;;11.40;2.10;;;7.20;63.00;;;;;;5040908;28;20181;-93
2022/02/19 09:02:37;;;;;;;7.82;2.38;;;7.30;62.70;;;;;;5037908;28;20178;-93
2022/02/19 09:05:04;;;;;;;6.57;1.70;;;7.30;62.40;;;;;;5037686;28;20205;-93
2022/02/19 09:07:29;;;;;;;8.68;1.83;;;7.40;61.90;;;;;;5055135;28;20657;-94
2022/02/19 09:09:56;;;;;;;7.70;2.80;;;7.40;61.60;;;;;;5041448;28;20231;-94
2022/02/19 09:12:22;;;;;;;8.05;2.17;;;7.50;61.60;;;;;;5016596;28;20232;-93
2022/02/19 09:14:48;;;;;;;7.93;2.10;;;7.60;61.60;;;;;;5035053;28;20620;-91
2022/02/19 09:17:14;;;;;;;8.90;2.20;;;7.70;61.30;;;;;;5060416;28;20533;-94
2022/02/19 09:19:39;;;;;;;6.07;1.93;;;7.80;60.90;;;;;;5039756;28;20276;-94
2022/02/19 09:22:06;;;;;;;10.10;1.93;;;7.80;60.20;;;;;;5044245;28;20603;-93
2022/02/19 09:24:32;;;;;;;5.05;1.65;;;7.70;60.10;;;;;;5060096;28;20250;-93
2022/02/19 09:26:58;;;;;;;5.35;2.30;;;7.60;59.80;;;;;;5042210;28;20201;-94
2022/02/19 09:29:24;;;;;;;13.77;2.70;;;7.60;59.90;;;;;;5044171;28;20615;-93
2022/02/19 09:31:50;;;;;;;14.38;2.30;;;7.60;59.80;;;;;;5042668;28;20204;-95
2022/02/19 09:34:16;;;;;;;15.00;3.05;;;7.60;59.80;;;;;;5040575;28;20272;-92
2022/02/19 09:36:42;;;;;;;19.53;2.10;;;7.70;60.00;;;;;;5038005;28;20213;-93
2022/02/19 09:39:08;;;;;;;12.32;1.60;;;7.70;59.90;;;;;;5041177;28;20181;-93
2022/02/19 09:41:37;;;;;;;5.22;1.50;;;7.70;59.90;;;;;;5041372;28;20598;-94
2022/02/19 09:44:04;;;;;;;5.00;2.17;;;7.70;59.30;;;;;;5048588;28;20235;-94
2022/02/19 09:46:33;;;;;;;5.63;1.83;;;7.80;59.30;;;;;;5051803;28;20193;-94
2022/02/19 09:49:27;;;;;;;8.13;2.40;;;8.10;59.50;;;;;;5069351;28;20165;-94
2022/02/19 09:52:24;;;;;;;6.00;1.40;;;8.10;59.10;;;;;;5042697;28;20181;-91
2022/02/19 09:54:51;;;;;;;9.25;2.00;;;8.20;58.90;;;;;;5032286;28;20257;-92
2022/02/19 09:57:34;;;;;;;15.77;2.03;;;8.30;58.40;;;;;;5047917;28;20205;-90
2022/02/19 10:00:04;;;;;;;3.20;1.60;;;8.20;58.40;;;;;;5044743;28;20260;-92
2022/02/19 10:02:46;;;;;;;7.05;1.73;;;8.40;58.20;;;;;;5041872;28;20256;-91
2022/02/19 10:05:13;;;;;;;10.52;2.28;;;8.10;58.00;;;;;;5039886;28;20199;-92
2022/02/19 10:07:41;;;;;;;9.70;2.05;;;8.30;58.20;;;;;;5036908;28;20287;-91
2022/02/19 10:10:07;;;;;;;13.70;2.10;;;8.30;58.30;;;;;;5040224;28;20169;-92
2022/02/19 10:22:53;;;;;;;4.03;2.03;;;8.60;58.60;;;;;;5035886;28;20206;-90
2022/02/19 10:25:24;;;;;;;4.55;1.65;;;8.70;58.40;;;;;;5018488;28;20194;-90
2022/02/19 10:27:58;;;;;;;5.80;1.83;;;8.80;57.50;;;;;;5019704;28;20190;-90
2022/02/19 10:30:28;;;;;;;11.70;1.50;;;8.90;57.20;;;;;;5012743;28;20168;-90
2022/02/19 10:33:03;;;;;;;14.75;1.70;;;9.00;56.20;;;;;;5011760;28;20205;-90
2022/02/19 10:35:38;;;;;;;3.35;1.35;;;8.90;56.10;;;;;;5044779;28;20184;-90
2022/02/19 10:38:18;;;;;;;9.32;2.38;;;9.30;55.80;;;;;;5029885;28;20193;-93
2022/02/19 10:40:46;;;;;;;5.15;2.33;;;9.40;55.50;;;;;;4998882;28;20324;-91
2022/02/19 10:43:37;;;;;;;10.63;1.63;;;9.30;55.30;;;;;;4999921;28;20190;-91
2022/02/19 10:46:04;;;;;;;14.13;2.30;;;9.30;54.80;;;;;;5025597;28;20753;-90
2022/02/19 10:48:37;;;;;;;8.35;2.72;;;9.40;54.70;;;;;;5021431;28;20574;-90
2022/02/19 10:51:18;;;;;;;15.45;2.05;;;9.40;55.10;;;;;;5016609;28;20170;-91
2022/02/19 10:53:58;;;;;;;8.57;2.33;;;9.30;55.00;;;;;;5014288;28;20169;-91
2022/02/19 10:56:25;;;;;;;10.38;2.40;;;9.30;55.10;;;;;;5020769;28;20540;-91
2022/02/19 10:59:08;;;;;;;17.60;1.98;;;9.30;55.30;;;;;;5017630;28;20205;-90
2022/02/19 11:01:43;;;;;;;6.30;1.67;;;9.40;54.70;;;;;;4997219;28;20267;-93
2022/02/19 11:04:12;;;;;;;6.00;1.40;;;9.40;54.10;;;;;;5015052;28;20277;-91
2022/02/19 11:06:38;;;;;;;8.63;1.30;;;9.50;53.90;;;;;;4998169;28;20478;-91
2022/02/19 11:09:06;;;;;;;7.50;1.90;;;9.60;52.40;;;;;;5007060;28;20182;-92
2022/02/19 11:11:34;;;;;;;5.78;2.03;;;9.70;52.30;;;;;;5038931;28;20206;-91
2022/02/19 11:14:08;;;;;;;7.00;1.55;;;9.70;52.10;;;;;;5021900;28;20186;-91
2022/02/19 11:16:35;;;;;;;9.48;2.67;;;9.70;52.20;;;;;;5026544;28;20166;-91
2022/02/19 11:19:02;;;;;;;8.15;1.80;;;10.10;52.20;;;;;;5038902;28;20193;-91
2022/02/19 11:21:29;;;;;;;7.50;1.88;;;10.30;51.90;;;;;;5020013;28;20284;-92
2022/02/19 11:24:00;;;;;;;10.50;2.05;;;10.00;51.70;;;;;;5035714;28;20205;-94
2022/02/19 11:26:26;;;;;;;14.20;2.05;;;10.20;51.60;;;;;;5037296;28;20170;-95
2022/02/19 11:28:56;;;;;;;13.57;2.10;;;10.10;51.10;;;;;;5038652;28;20277;-96
2022/02/19 11:31:27;;;;;;;9.93;1.67;;;10.20;51.10;;;;;;5033943;28;20183;-95
2022/02/19 11:33:56;;;;;;;13.57;2.30;;;10.10;50.70;;;;;;5037362;28;20158;-92
2022/02/19 11:36:26;;;;;;;9.93;1.55;;;10.10;50.60;;;;;;5019704;28;20181;-91
2022/02/19 11:38:55;;;;;;;14.88;2.40;;;10.00;50.90;;;;;;5003426;28;20225;-92
2022/02/19 11:41:42;;;;;;;8.40;1.42;;;10.10;51.60;;;;;;5025548;28;20170;-93
2022/02/19 11:44:21;;;;;;;4.85;1.75;;;10.20;51.30;;;;;;5016758;28;20225;-92
2022/02/19 11:46:47;;;;;;;11.90;1.80;;;10.20;51.70;;;;;;5017258;28;20174;-92
2022/02/19 11:49:18;;;;;;;8.20;2.17;;;10.20;51.10;;;;;;5001888;28;20185;-92
2022/02/19 11:52:35;;;;;;;2.47;1.55;;;10.10;51.70;;;;;;5016102;28;20181;-92
2022/02/19 11:55:27;;;;;;;7.95;1.70;;;9.80;52.20;;;;;;5015367;28;20174;-90
2022/02/19 11:58:05;;;;;;;2.55;1.15;;;10.00;53.10;;;;;;5034125;28;20201;-89
2022/02/19 12:00:53;;;;;;;9.15;1.40;;;10.20;52.30;;;;;;5015006;28;20654;-88
2022/02/19 12:03:25;;;;;;;13.32;1.80;;;10.00;51.70;;;;;;5014991;28;20177;-90
2022/02/19 12:06:18;;;;;;;4.22;1.60;;;10.10;51.40;;;;;;5015145;28;20186;-90
2022/02/19 12:08:48;;;;;;;6.50;1.45;;;9.90;51.20;;;;;;5015482;28;20647;-90
2022/02/19 12:11:15;;;;;;;2.53;1.20;;;10.20;53.30;;;;;;5015652;28;20692;-89
2022/02/19 12:13:57;;;;;;;5.68;1.67;;;10.40;53.00;;;;;;5015358;28;20621;-88
2022/02/19 12:16:31;;;;;;;10.45;1.77;;;10.60;52.10;;;;;;5017855;28;20177;-87
2022/02/19 12:19:10;;;;;;;14.20;1.95;;;10.70;51.80;;;;;;5015256;28;20192;-90
2022/02/19 12:21:37;;;;;;;5.63;1.50;;;10.60;50.90;;;;;;5016387;28;20201;-90
2022/02/19 12:24:13;;;;;;;5.00;1.33;;;10.70;50.70;;;;;;5048202;28;20192;-90
2022/02/19 12:27:04;;;;;;;6.00;2.10;;;10.70;50.70;;;;;;5000127;28;20584;-91
2022/02/19 12:29:35;;;;;;;9.80;1.90;;;10.90;52.50;;;;;;5044435;28;20175;-88
2022/02/19 12:32:09;;;;;;;17.15;2.20;;;11.20;51.70;;;;;;5017035;28;20178;-89
2022/02/19 12:34:38;;;;;;;11.35;2.03;;;11.20;51.10;;;;;;5038734;28;20694;-89
2022/02/19 12:37:06;;;;;;;6.20;2.13;;;11.10;51.10;;;;;;5031218;28;20220;-88
2022/02/19 12:39:40;;;;;;;12.57;2.40;;;11.10;51.90;;;;;;5017194;28;20236;-90
2022/02/19 12:42:06;;;;;;;12.82;2.33;;;11.10;52.50;;;;;;5012183;28;20177;-90
2022/02/19 12:44:33;;;;;;;8.80;1.80;;;11.20;52.50;;;;;;5014437;28;20263;-89
2022/02/19 12:47:00;;;;;;;8.20;1.60;;;11.10;51.20;;;;;;5014449;28;20490;-89
2022/02/19 12:49:26;;;;;;;20.10;3.17;;;11.20;52.70;;;;;;5016090;28;20177;-88
2022/02/19 12:51:56;;;;;;;12.02;2.30;;;11.10;51.90;;;;;;5020204;28;20174;-89
2022/02/19 12:54:45;;;;;;;6.75;1.67;;;11.00;51.70;;;;;;5017038;28;20242;-88
2022/02/19 12:57:16;;;;;;;13.75;3.28;;;11.10;52.00;;;;;;5020285;28;20198;-90
2022/02/19 12:59:47;;;;;;;10.32;2.35;;;11.10;51.60;;;;;;5020182;28;20213;-91
2022/02/19 13:02:17;;;;;;;5.78;2.10;;;10.90;51.10;;;;;;5018926;28;20265;-91
2022/02/19 13:04:46;;;;;;;9.93;2.15;;;10.70;51.30;;;;;;5002454;28;20209;-91
2022/02/19 13:07:21;;;;;;;7.43;1.90;;;10.80;52.20;;;;;;5018739;28;20193;-90
2022/02/19 13:09:54;;;;;;;5.25;1.90;;;11.00;52.00;;;;;;5019612;28;20185;-91
2022/02/19 13:12:28;;;;;;;4.80;1.80;;;11.30;53.50;;;;;;5020159;28;20186;-91
2022/02/19 13:14:56;;;;;;;5.60;2.15;;;11.10;53.10;;;;;;5019340;28;20177;-91
2022/02/19 13:17:22;;;;;;;11.43;2.08;;;11.40;56.20;;;;;;5018726;28;20198;-91